createdAt,value
2022-12-17T00:00:16.691Z,19.30
2022-12-17T00:01:16.593Z,18.50
2022-12-17T00:02:16.703Z,23.50
2022-12-17T00:03:16.711Z,25.80
2022-12-17T00:04:16.702Z,22.00
2022-12-17T00:05:16.562Z,18.10
2022-12-17T00:06:16.555Z,20.80
2022-12-17T00:07:16.535Z,18.30
2022-12-17T00:08:16.553Z,26.20
2022-12-17T00:09:16.510Z,26.00
2022-12-17T00:10:16.540Z,23.50
2022-12-17T00:11:16.491Z,24.30
2022-12-17T00:12:16.510Z,23.50
2022-12-17T00:13:16.474Z,21.20
2022-12-17T00:14:16.496Z,22.30
2022-12-17T00:15:16.466Z,20.80
2022-12-17T00:16:16.492Z,23.10
2022-12-17T00:17:16.432Z,19.10
2022-12-17T00:18:16.449Z,20.90
2022-12-17T00:19:16.413Z,23.50
2022-12-17T00:20:16.432Z,25.00
2022-12-17T00:21:16.404Z,18.20
2022-12-17T00:22:16.397Z,22.30
2022-12-17T00:23:16.376Z,22.50
2022-12-17T00:24:16.394Z,19.40
2022-12-17T00:25:16.355Z,22.80
2022-12-17T00:26:16.383Z,21.80
2022-12-17T00:27:16.340Z,25.80
2022-12-17T00:28:16.342Z,19.80
2022-12-17T00:29:16.317Z,20.90
2022-12-17T00:30:16.336Z,23.80
2022-12-17T00:31:16.347Z,20.80
2022-12-17T00:32:16.316Z,20.00
2022-12-17T00:33:16.274Z,26.90
2022-12-17T00:34:16.282Z,22.90
2022-12-17T00:35:16.260Z,21.60
2022-12-17T00:36:16.277Z,24.20
2022-12-17T00:37:16.245Z,25.30
2022-12-17T00:38:16.254Z,21.70
2022-12-17T00:39:16.214Z,23.20
2022-12-17T00:40:16.238Z,19.40
2022-12-17T00:41:16.198Z,17.60
2022-12-17T00:42:16.215Z,19.10
2022-12-17T00:43:16.193Z,23.20
2022-12-17T00:44:16.207Z,22.20
2022-12-17T00:45:16.158Z,24.70
2022-12-17T00:46:16.223Z,21.00
2022-12-17T00:47:16.148Z,20.30
2022-12-17T00:48:16.145Z,27.10
2022-12-17T00:49:16.120Z,25.10
2022-12-17T00:50:16.136Z,26.20
2022-12-17T00:51:16.098Z,23.10
2022-12-17T00:52:16.109Z,26.20
2022-12-17T00:53:16.076Z,24.90
2022-12-17T00:54:16.096Z,22.30
2022-12-17T00:55:16.077Z,25.20
2022-12-17T00:56:16.101Z,23.70
2022-12-17T00:57:16.041Z,23.00
2022-12-17T00:58:16.075Z,23.70
2022-12-17T00:59:16.019Z,19.90
2022-12-17T01:00:16.038Z,23.30
2022-12-17T01:01:16.126Z,22.90
2022-12-17T01:02:16.173Z,25.10
2022-12-17T01:03:16.092Z,18.50
2022-12-17T01:04:15.987Z,19.20
2022-12-17T01:05:15.960Z,18.20
2022-12-17T01:06:15.965Z,19.50
2022-12-17T01:07:15.938Z,19.30
2022-12-17T01:08:15.970Z,18.00
2022-12-17T01:09:15.926Z,24.60
2022-12-17T01:10:15.941Z,22.20
2022-12-17T01:11:15.900Z,25.00
2022-12-17T01:12:15.916Z,22.30
2022-12-17T01:13:15.893Z,21.00
2022-12-17T01:14:15.893Z,19.30
2022-12-17T01:15:15.891Z,18.10
2022-12-17T01:16:15.934Z,24.50
2022-12-17T01:17:15.859Z,19.60
2022-12-17T01:18:15.918Z,19.70
2022-12-17T01:19:15.954Z,19.60
2022-12-17T01:20:15.839Z,19.90
2022-12-17T01:21:15.810Z,18.30
2022-12-17T01:22:15.810Z,23.00
2022-12-17T01:23:15.807Z,21.10
2022-12-17T01:24:15.804Z,21.50
2022-12-17T01:25:15.760Z,21.50
2022-12-17T01:26:15.790Z,21.20
2022-12-17T01:27:15.747Z,19.70
2022-12-17T01:28:15.781Z,19.30
2022-12-17T01:29:15.741Z,19.20
2022-12-17T01:30:15.747Z,19.20
2022-12-17T01:31:15.800Z,23.20
2022-12-17T01:32:15.721Z,20.10
2022-12-17T01:33:15.688Z,23.90
2022-12-17T01:34:15.699Z,20.40
2022-12-17T01:35:15.678Z,21.20
2022-12-17T01:36:15.675Z,18.30
2022-12-17T01:37:15.675Z,21.90
2022-12-17T01:38:15.643Z,19.20
2022-12-17T01:39:15.670Z,19.70
2022-12-17T01:40:15.616Z,19.90
2022-12-17T01:41:15.625Z,21.90
2022-12-17T01:42:15.601Z,22.40
2022-12-17T01:43:15.625Z,23.60
2022-12-17T01:44:15.577Z,22.30
2022-12-17T01:45:15.628Z,18.50
2022-12-17T01:46:15.613Z,18.30
2022-12-17T01:47:15.565Z,21.60
2022-12-17T01:48:15.551Z,22.30
2022-12-17T01:49:15.546Z,25.00
2022-12-17T01:50:15.539Z,22.50
2022-12-17T01:51:15.536Z,17.80
2022-12-17T01:52:15.497Z,19.10
2022-12-17T01:53:15.505Z,21.00
2022-12-17T01:54:15.480Z,28.60
2022-12-17T01:55:15.504Z,21.30
2022-12-17T01:56:15.478Z,21.20
2022-12-17T01:57:15.466Z,19.50
2022-12-17T01:58:15.453Z,21.70
2022-12-17T01:59:15.450Z,23.60
2022-12-17T02:00:15.444Z,22.40
2022-12-17T02:01:15.601Z,22.70
2022-12-17T02:02:15.494Z,23.50
2022-12-17T02:03:15.443Z,21.50
2022-12-17T02:04:15.385Z,17.80
2022-12-17T02:05:15.390Z,18.10
2022-12-17T02:06:15.381Z,18.10
2022-12-17T02:07:15.429Z,21.70
2022-12-17T02:08:15.348Z,18.90
2022-12-17T02:09:15.364Z,18.60
2022-12-17T02:10:15.324Z,24.90
2022-12-17T02:11:15.355Z,16.80
2022-12-17T02:12:15.317Z,20.70
2022-12-17T02:13:15.313Z,22.90
2022-12-17T02:14:15.296Z,17.60
2022-12-17T02:15:15.286Z,19.10
2022-12-17T02:16:15.296Z,18.40
2022-12-17T02:17:15.297Z,20.40
2022-12-17T02:18:15.253Z,21.30
2022-12-17T02:19:15.252Z,22.30
2022-12-17T02:20:15.230Z,16.40
2022-12-17T02:21:15.237Z,22.40
2022-12-17T02:22:15.223Z,21.00
2022-12-17T02:23:15.219Z,21.80
2022-12-17T02:24:15.187Z,20.80
2022-12-17T02:25:15.196Z,19.90
2022-12-17T02:26:15.178Z,20.80
2022-12-17T02:27:15.199Z,21.50
2022-12-17T02:28:15.157Z,21.70
2022-12-17T02:29:15.154Z,22.50
2022-12-17T02:30:15.128Z,18.90
2022-12-17T02:31:15.182Z,21.60
2022-12-17T02:32:15.108Z,23.90
2022-12-17T02:33:15.143Z,17.10
2022-12-17T02:34:15.090Z,18.50
2022-12-17T02:35:15.147Z,23.90
2022-12-17T02:36:15.070Z,20.80
2022-12-17T02:37:15.079Z,18.40
2022-12-17T02:38:15.072Z,25.40
2022-12-17T02:39:15.078Z,22.60
2022-12-17T02:40:15.034Z,24.30
2022-12-17T02:41:15.032Z,19.80
2022-12-17T02:42:15.019Z,20.20
2022-12-17T02:43:15.029Z,17.30
2022-12-17T02:44:14.994Z,18.50
2022-12-17T02:45:15.011Z,25.40
2022-12-17T02:46:15.058Z,21.90
2022-12-17T02:47:14.983Z,22.40
2022-12-17T02:48:14.953Z,18.20
2022-12-17T02:49:14.971Z,17.80
2022-12-17T02:50:14.937Z,19.10
2022-12-17T02:51:14.954Z,22.50
2022-12-17T02:52:14.939Z,18.30
2022-12-17T02:53:14.926Z,19.20
2022-12-17T02:54:14.898Z,21.90
2022-12-17T02:55:14.900Z,22.70
2022-12-17T02:56:14.873Z,19.10
2022-12-17T02:57:14.903Z,20.50
2022-12-17T02:58:14.876Z,18.10
2022-12-17T02:59:14.859Z,25.70
2022-12-17T03:00:14.836Z,21.70
2022-12-17T03:01:15.021Z,21.80
2022-12-17T03:02:14.953Z,18.30
2022-12-17T03:03:14.869Z,20.70
2022-12-17T03:04:14.804Z,24.80
2022-12-17T03:05:42.859Z,22.40
2022-12-17T03:06:14.803Z,19.90
2022-12-17T03:07:14.810Z,22.40
2022-12-17T03:08:14.761Z,18.00
2022-12-17T03:09:14.767Z,20.90
2022-12-17T03:10:14.774Z,21.00
2022-12-17T03:11:14.763Z,20.80
2022-12-17T03:12:14.731Z,20.40
2022-12-17T03:13:14.725Z,19.50
2022-12-17T03:14:14.700Z,19.20
2022-12-17T03:15:14.716Z,22.00
2022-12-17T03:16:14.732Z,22.20
2022-12-17T03:17:14.725Z,17.70
2022-12-17T03:18:14.672Z,22.20
2022-12-17T03:19:14.665Z,20.40
2022-12-17T03:20:14.639Z,20.20
2022-12-17T03:21:14.659Z,21.90
2022-12-17T03:22:14.619Z,25.90
2022-12-17T03:23:14.652Z,20.20
2022-12-17T03:24:14.606Z,24.30
2022-12-17T03:25:14.623Z,16.10
2022-12-17T03:26:14.589Z,19.70
2022-12-17T03:27:14.589Z,20.70
2022-12-17T03:28:14.577Z,17.60
2022-12-17T03:29:14.572Z,18.30
2022-12-17T03:30:14.563Z,20.30
2022-12-17T03:31:14.593Z,18.70
2022-12-17T03:32:14.527Z,19.80
2022-12-17T03:33:14.535Z,21.20
2022-12-17T03:34:14.510Z,19.50
2022-12-17T03:35:14.510Z,17.70
2022-12-17T03:36:14.513Z,18.80
2022-12-17T03:37:14.510Z,17.60
2022-12-17T03:38:14.469Z,22.40
2022-12-17T03:39:14.492Z,14.60
2022-12-17T03:40:14.453Z,17.50
2022-12-17T03:41:14.458Z,19.10
2022-12-17T03:42:14.446Z,15.80
2022-12-17T03:43:14.448Z,21.60
2022-12-17T03:44:14.413Z,24.20
2022-12-17T03:45:14.437Z,21.10
2022-12-17T03:46:14.475Z,19.30
2022-12-17T03:47:14.413Z,19.10
2022-12-17T03:48:14.375Z,20.20
2022-12-17T03:49:14.382Z,23.60
2022-12-17T03:50:14.361Z,15.60
2022-12-17T03:51:14.375Z,18.90
2022-12-17T03:52:14.340Z,19.80
2022-12-17T03:53:14.360Z,16.90
2022-12-17T03:54:14.327Z,18.80
2022-12-17T03:55:14.323Z,20.90
2022-12-17T03:56:14.316Z,19.50
2022-12-17T03:57:16.236Z,20.80
2022-12-17T03:58:14.283Z,19.00
2022-12-17T03:59:14.316Z,20.40
2022-12-17T04:00:14.274Z,17.30
2022-12-17T04:01:14.389Z,18.10
2022-12-17T04:02:14.500Z,18.10
2022-12-17T04:03:14.312Z,17.10
2022-12-17T04:04:14.237Z,18.70
2022-12-17T04:05:19.925Z,18.50
2022-12-17T04:06:14.234Z,20.60
2022-12-17T04:07:14.209Z,19.20
2022-12-17T04:08:14.198Z,23.30
2022-12-17T04:09:14.206Z,22.80
2022-12-17T04:10:14.168Z,17.20
2022-12-17T04:11:14.172Z,24.60
2022-12-17T04:12:14.151Z,19.10
2022-12-17T04:13:14.152Z,16.00
2022-12-17T04:14:14.131Z,20.70
2022-12-17T04:15:14.144Z,21.40
2022-12-17T04:16:14.145Z,18.40
2022-12-17T04:17:14.127Z,19.10
2022-12-17T04:18:14.107Z,19.40
2022-12-17T04:19:14.124Z,26.30
2022-12-17T04:20:14.078Z,20.30
2022-12-17T04:21:14.099Z,19.40
2022-12-17T04:22:14.072Z,16.30
2022-12-17T04:23:14.076Z,18.60
2022-12-17T04:24:14.042Z,17.60
2022-12-17T04:25:14.053Z,19.30
2022-12-17T04:26:14.020Z,17.50
2022-12-17T04:27:14.034Z,18.50
2022-12-17T04:28:14.010Z,15.10
2022-12-17T04:29:14.025Z,18.90
2022-12-17T04:30:14.010Z,17.10
2022-12-17T04:31:14.014Z,17.40
2022-12-17T04:32:13.987Z,17.00
2022-12-17T04:33:13.983Z,19.60
2022-12-17T04:34:13.943Z,19.90
2022-12-17T04:35:13.976Z,19.50
2022-12-17T04:36:13.927Z,19.00
2022-12-17T04:37:13.958Z,19.60
2022-12-17T04:38:13.907Z,20.70
2022-12-17T04:39:13.917Z,20.20
2022-12-17T04:40:13.890Z,19.00
2022-12-17T04:41:13.906Z,22.00
2022-12-17T04:42:13.878Z,16.40
2022-12-17T04:43:13.894Z,13.60
2022-12-17T04:44:13.851Z,14.30
2022-12-17T04:45:13.854Z,21.70
2022-12-17T04:46:13.873Z,19.80
2022-12-17T04:47:13.848Z,19.30
2022-12-17T04:48:13.824Z,16.50
2022-12-17T04:49:13.921Z,17.60
2022-12-17T04:50:13.803Z,16.70
2022-12-17T04:51:13.801Z,19.60
2022-12-17T04:52:13.791Z,20.40
2022-12-17T04:53:13.807Z,19.50
2022-12-17T04:54:13.757Z,18.90
2022-12-17T04:55:13.777Z,18.40
2022-12-17T04:56:13.744Z,18.40
2022-12-17T04:57:13.757Z,16.70
2022-12-17T04:58:13.748Z,17.20
2022-12-17T04:59:13.740Z,15.20
2022-12-17T05:00:13.700Z,22.90
2022-12-17T05:01:13.936Z,18.20
2022-12-17T05:02:13.787Z,15.70
2022-12-17T05:03:13.798Z,19.90
2022-12-17T05:04:13.685Z,15.80
2022-12-17T05:05:13.682Z,17.80
2022-12-17T05:06:13.646Z,17.60
2022-12-17T05:07:13.646Z,18.30
2022-12-17T05:08:13.648Z,19.50
2022-12-17T05:09:13.648Z,17.80
2022-12-17T05:10:13.610Z,23.00
2022-12-17T05:11:13.615Z,17.90
2022-12-17T05:12:13.597Z,19.00
2022-12-17T05:13:13.657Z,15.90
2022-12-17T05:14:13.564Z,14.70
2022-12-17T05:15:13.583Z,18.40
2022-12-17T05:16:13.638Z,21.30
2022-12-17T05:17:13.561Z,18.70
2022-12-17T05:18:13.551Z,15.20
2022-12-17T05:19:13.608Z,16.80
2022-12-17T05:20:13.511Z,15.80
2022-12-17T05:21:13.531Z,17.40
2022-12-17T05:22:13.496Z,17.20
2022-12-17T05:23:13.501Z,17.80
2022-12-17T05:24:13.489Z,15.50
2022-12-17T05:25:13.492Z,18.10
2022-12-17T05:26:13.456Z,20.10
2022-12-17T05:27:13.474Z,15.70
2022-12-17T05:28:13.449Z,19.90
2022-12-17T05:29:16.033Z,14.30
2022-12-17T05:30:13.419Z,15.70
2022-12-17T05:31:13.511Z,16.90
2022-12-17T05:32:13.410Z,18.80
2022-12-17T05:33:13.412Z,20.00
2022-12-17T05:34:13.418Z,19.30
2022-12-17T05:35:13.414Z,18.40
2022-12-17T05:36:13.386Z,21.60
2022-12-17T05:37:13.383Z,20.30
2022-12-17T05:38:13.364Z,23.20
2022-12-17T05:39:13.378Z,21.30
2022-12-17T05:40:13.326Z,26.10
2022-12-17T05:41:13.364Z,41.80
2022-12-17T05:42:13.308Z,44.10
2022-12-17T05:43:13.318Z,40.50
2022-12-17T05:44:13.313Z,45.90
2022-12-17T05:45:13.297Z,34.80
2022-12-17T05:46:13.313Z,29.80
2022-12-17T05:47:13.279Z,28.30
2022-12-17T05:48:13.252Z,20.80
2022-12-17T05:49:13.280Z,22.50
2022-12-17T05:50:13.252Z,24.40
2022-12-17T05:51:13.253Z,20.60
2022-12-17T05:52:13.255Z,22.30
2022-12-17T05:53:13.246Z,22.10
2022-12-17T05:54:13.216Z,19.00
2022-12-17T05:55:13.209Z,15.80
2022-12-17T05:56:13.202Z,17.90
2022-12-17T05:57:13.180Z,17.80
2022-12-17T05:58:13.188Z,15.40
2022-12-17T05:59:13.165Z,19.60
2022-12-17T06:00:13.174Z,16.80
2022-12-17T06:01:13.180Z,14.60
2022-12-17T06:02:13.158Z,20.20
2022-12-17T06:03:13.222Z,17.40
2022-12-17T06:04:13.187Z,14.80
2022-12-17T06:05:13.102Z,15.20
2022-12-17T06:06:13.119Z,17.70
2022-12-17T06:07:13.112Z,15.20
2022-12-17T06:08:13.082Z,18.00
2022-12-17T06:09:13.066Z,17.90
2022-12-17T06:10:13.090Z,18.40
2022-12-17T06:11:13.058Z,16.50
2022-12-17T06:12:13.083Z,18.60
2022-12-17T06:13:13.030Z,19.00
2022-12-17T06:14:13.034Z,16.40
2022-12-17T06:15:13.017Z,21.40
2022-12-17T06:16:13.082Z,17.10
2022-12-17T06:17:12.986Z,24.90
2022-12-17T06:18:16.663Z,17.00
2022-12-17T06:19:12.974Z,18.50
2022-12-17T06:20:12.979Z,17.90
2022-12-17T06:21:12.945Z,22.50
2022-12-17T06:22:12.959Z,16.90
2022-12-17T06:23:12.941Z,18.70
2022-12-17T06:24:12.950Z,13.80
2022-12-17T06:25:12.909Z,18.40
2022-12-17T06:26:12.940Z,18.90
2022-12-17T06:27:12.902Z,19.80
2022-12-17T06:28:12.949Z,24.20
2022-12-17T06:29:12.879Z,20.50
2022-12-17T06:30:18.316Z,17.20
2022-12-17T06:31:12.941Z,20.20
2022-12-17T06:32:12.925Z,17.60
2022-12-17T06:33:12.803Z,17.00
2022-12-17T06:34:12.856Z,18.70
2022-12-17T06:35:12.829Z,16.80
2022-12-17T06:36:19.734Z,13.60
2022-12-17T06:37:12.843Z,19.00
2022-12-17T06:38:12.825Z,17.20
2022-12-17T06:39:12.781Z,15.80
2022-12-17T06:40:12.751Z,17.60
2022-12-17T06:41:12.723Z,21.50
2022-12-17T06:42:12.744Z,15.00
2022-12-17T06:43:12.716Z,19.90
2022-12-17T06:44:12.725Z,16.80
2022-12-17T06:45:12.696Z,22.80
2022-12-17T06:46:12.856Z,19.90
2022-12-17T06:47:12.704Z,21.50
2022-12-17T06:48:12.770Z,22.30
2022-12-17T06:49:12.678Z,17.00
2022-12-17T06:50:12.638Z,21.60
2022-12-17T06:51:12.623Z,22.80
2022-12-17T06:52:12.632Z,17.60
2022-12-17T06:53:12.637Z,16.60
2022-12-17T06:54:12.627Z,18.80
2022-12-17T06:55:12.605Z,20.40
2022-12-17T06:56:12.589Z,18.40
2022-12-17T06:57:12.596Z,19.20
2022-12-17T06:58:12.572Z,20.10
2022-12-17T06:59:12.560Z,18.10
2022-12-17T07:00:12.590Z,13.70
2022-12-17T07:01:12.737Z,17.00
2022-12-17T07:02:12.650Z,17.90
2022-12-17T07:03:14.805Z,18.90
2022-12-17T07:04:12.548Z,17.70
2022-12-17T07:05:12.499Z,21.20
2022-12-17T07:06:12.544Z,15.50
2022-12-17T07:07:12.483Z,16.30
2022-12-17T07:08:12.503Z,17.40
2022-12-17T07:09:12.471Z,28.50
2022-12-17T07:10:14.519Z,18.30
2022-12-17T07:11:12.434Z,15.30
2022-12-17T07:12:12.640Z,16.80
2022-12-17T07:13:12.418Z,19.70
2022-12-17T07:14:12.464Z,16.30
2022-12-17T07:15:12.393Z,18.60
2022-12-17T07:16:12.494Z,14.90
2022-12-17T07:17:12.378Z,16.50
2022-12-17T07:18:12.423Z,18.40
2022-12-17T07:19:12.375Z,25.90
2022-12-17T07:20:12.378Z,19.40
2022-12-17T07:21:12.342Z,17.20
2022-12-17T07:22:12.388Z,16.30
2022-12-17T07:23:12.331Z,20.40
2022-12-17T07:24:12.342Z,16.00
2022-12-17T07:25:12.308Z,17.20
2022-12-17T07:26:12.325Z,17.70
2022-12-17T07:27:12.303Z,15.20
2022-12-17T07:28:12.312Z,20.90
2022-12-17T07:29:12.293Z,16.70
2022-12-17T07:30:12.281Z,19.40
2022-12-17T07:31:12.288Z,18.30
2022-12-17T07:32:12.316Z,14.70
2022-12-17T07:33:12.232Z,15.90
2022-12-17T07:34:12.272Z,18.20
2022-12-17T07:35:12.215Z,19.00
2022-12-17T07:36:12.235Z,18.40
2022-12-17T07:37:14.949Z,15.90
2022-12-17T07:38:12.211Z,17.30
2022-12-17T07:39:12.200Z,18.00
2022-12-17T07:40:12.190Z,30.20
2022-12-17T07:41:12.153Z,15.60
2022-12-17T07:42:12.187Z,15.80
2022-12-17T07:43:12.148Z,18.00
2022-12-17T07:44:12.165Z,23.40
2022-12-17T07:45:12.119Z,18.60
2022-12-17T07:46:12.181Z,17.70
2022-12-17T07:47:12.100Z,15.70
2022-12-17T07:48:12.129Z,14.20
2022-12-17T07:49:12.086Z,16.90
2022-12-17T07:50:12.104Z,13.20
2022-12-17T07:51:12.074Z,15.90
2022-12-17T07:52:12.107Z,21.70
2022-12-17T07:53:12.092Z,21.80
2022-12-17T07:54:12.052Z,16.30
2022-12-17T07:55:16.735Z,14.90
2022-12-17T07:56:12.171Z,15.00
2022-12-17T07:57:12.011Z,18.40
2022-12-17T07:58:12.013Z,16.30
2022-12-17T07:59:11.998Z,15.20
2022-12-17T08:00:12.002Z,16.80
2022-12-17T08:01:12.039Z,15.50
2022-12-17T08:02:12.362Z,15.50
2022-12-17T08:03:12.019Z,16.90
2022-12-17T08:04:11.972Z,20.00
2022-12-17T08:05:11.938Z,16.20
2022-12-17T08:06:11.938Z,13.50
2022-12-17T08:07:14.109Z,18.50
2022-12-17T08:08:11.926Z,24.00
2022-12-17T08:09:11.906Z,16.70
2022-12-17T08:10:11.902Z,16.50
2022-12-17T08:11:11.879Z,14.60
2022-12-17T08:12:11.900Z,14.40
2022-12-17T08:13:14.220Z,19.30
2022-12-17T08:14:11.881Z,24.30
2022-12-17T08:15:11.853Z,15.50
2022-12-17T08:16:11.893Z,21.00
2022-12-17T08:17:11.830Z,18.20
2022-12-17T08:18:11.846Z,17.90
2022-12-17T08:19:11.810Z,23.20
2022-12-17T08:20:11.841Z,16.00
2022-12-17T08:21:11.846Z,16.70
2022-12-17T08:22:11.809Z,20.10
2022-12-17T08:23:11.768Z,18.30
2022-12-17T08:24:11.790Z,16.90
2022-12-17T08:25:11.753Z,16.10
2022-12-17T08:26:11.762Z,20.20
2022-12-17T08:27:11.747Z,12.70
2022-12-17T08:28:41.210Z,13.90
2022-12-17T08:29:11.727Z,19.40
2022-12-17T08:30:11.738Z,18.30
2022-12-17T08:31:11.742Z,18.10
2022-12-17T08:32:11.707Z,15.30
2022-12-17T08:33:11.679Z,16.00
2022-12-17T08:34:11.697Z,19.40
2022-12-17T08:35:11.655Z,18.60
2022-12-17T08:36:11.663Z,20.20
2022-12-17T08:37:11.647Z,22.10
2022-12-17T08:38:11.674Z,18.80
2022-12-17T08:39:11.628Z,17.80
2022-12-17T08:40:11.638Z,19.70
2022-12-17T08:41:11.616Z,14.60
2022-12-17T08:42:11.631Z,15.40
2022-12-17T08:43:11.587Z,18.20
2022-12-17T08:44:11.624Z,17.00
2022-12-17T08:45:11.566Z,19.00
2022-12-17T08:46:11.649Z,21.40
2022-12-17T08:47:11.546Z,20.30
2022-12-17T08:48:11.565Z,17.90
2022-12-17T08:49:11.542Z,17.00
2022-12-17T08:50:11.544Z,16.10
2022-12-17T08:51:11.509Z,17.60
2022-12-17T08:52:11.568Z,15.90
2022-12-17T08:53:11.493Z,22.20
2022-12-17T08:54:11.588Z,14.30
2022-12-17T08:55:11.474Z,18.40
2022-12-17T08:56:11.481Z,18.70
2022-12-17T08:57:11.461Z,23.30
2022-12-17T08:58:11.461Z,21.10
2022-12-17T08:59:11.437Z,22.00
2022-12-17T09:00:11.465Z,20.60
2022-12-17T09:01:11.502Z,23.80
2022-12-17T09:02:11.640Z,18.20
2022-12-17T09:03:11.432Z,25.60
2022-12-17T09:04:11.416Z,19.60
2022-12-17T09:05:11.385Z,17.60
2022-12-17T09:06:11.401Z,24.20
2022-12-17T09:07:11.381Z,14.30
2022-12-17T09:08:11.380Z,19.90
2022-12-17T09:09:11.340Z,17.90
2022-12-17T09:10:11.344Z,24.50
2022-12-17T09:11:11.323Z,19.50
2022-12-17T09:12:11.329Z,18.80
2022-12-17T09:13:11.311Z,24.40
2022-12-17T09:14:11.310Z,25.50
2022-12-17T09:15:11.284Z,19.90
2022-12-17T09:16:11.346Z,22.70
2022-12-17T09:17:11.305Z,21.90
2022-12-17T09:18:11.307Z,19.00
2022-12-17T09:19:11.252Z,20.50
2022-12-17T09:20:11.257Z,24.80
2022-12-17T09:21:11.230Z,24.10
2022-12-17T09:22:11.233Z,23.50
2022-12-17T09:23:11.220Z,25.70
2022-12-17T09:24:11.235Z,24.10
2022-12-17T09:25:11.206Z,23.70
2022-12-17T09:26:11.209Z,29.20
2022-12-17T09:27:11.195Z,24.30
2022-12-17T09:28:11.196Z,23.50
2022-12-17T09:29:11.154Z,27.30
2022-12-17T09:30:11.176Z,24.90
2022-12-17T09:31:11.178Z,20.10
2022-12-17T09:32:11.155Z,27.50
2022-12-17T09:33:11.111Z,24.30
2022-12-17T09:34:11.143Z,28.60
2022-12-17T09:35:11.121Z,28.10
2022-12-17T09:36:11.119Z,29.60
2022-12-17T09:37:11.074Z,25.60
2022-12-17T09:38:11.097Z,26.80
2022-12-17T09:39:11.088Z,26.90
2022-12-17T09:40:11.077Z,23.00
2022-12-17T09:41:11.038Z,24.90
2022-12-17T09:42:11.041Z,30.70
2022-12-17T09:43:11.018Z,26.40
2022-12-17T09:44:11.046Z,25.20
2022-12-17T09:45:11.006Z,24.00
2022-12-17T09:46:11.083Z,26.50
2022-12-17T09:47:10.980Z,27.80
2022-12-17T09:48:11.000Z,27.50
2022-12-17T09:49:10.983Z,34.60
2022-12-17T09:50:10.964Z,20.50
2022-12-17T09:51:11.055Z,26.00
2022-12-17T09:52:10.958Z,21.60
2022-12-17T09:53:10.919Z,21.20
2022-12-17T09:54:10.924Z,26.20
2022-12-17T09:55:10.988Z,26.90
2022-12-17T09:56:10.944Z,27.10
2022-12-17T09:57:10.879Z,28.60
2022-12-17T09:58:10.895Z,20.80
2022-12-17T09:59:10.861Z,23.30
2022-12-17T10:00:10.899Z,25.70
2022-12-17T10:01:10.911Z,26.20
2022-12-17T10:02:11.119Z,28.90
2022-12-17T10:03:10.886Z,28.10
2022-12-17T10:04:10.842Z,25.70
2022-12-17T10:05:10.804Z,24.50
2022-12-17T10:06:10.826Z,22.50
2022-12-17T10:07:10.792Z,21.50
2022-12-17T10:08:10.775Z,24.80
2022-12-17T10:09:10.778Z,23.80
2022-12-17T10:10:10.751Z,28.00
2022-12-17T10:11:10.806Z,24.40
2022-12-17T10:12:10.732Z,29.00
2022-12-17T10:13:10.752Z,30.90
2022-12-17T10:14:10.713Z,28.40
2022-12-17T10:15:10.722Z,26.70
2022-12-17T10:16:10.788Z,25.60
2022-12-17T10:17:12.215Z,29.20
2022-12-17T10:18:10.677Z,24.10
2022-12-17T10:19:10.692Z,29.80
2022-12-17T10:20:10.659Z,22.70
2022-12-17T10:21:10.675Z,24.40
2022-12-17T10:22:10.660Z,23.50
2022-12-17T10:23:10.655Z,23.40
2022-12-17T10:24:15.421Z,18.90
2022-12-17T10:25:10.681Z,22.10
2022-12-17T10:26:10.598Z,23.30
2022-12-17T10:27:10.604Z,26.10
2022-12-17T10:28:10.577Z,28.00
2022-12-17T10:29:10.584Z,23.60
2022-12-17T10:30:10.560Z,26.60
2022-12-17T10:31:10.841Z,30.20
2022-12-17T10:32:10.538Z,24.80
2022-12-17T10:33:10.574Z,25.70
2022-12-17T10:34:10.540Z,27.30
2022-12-17T10:35:10.559Z,25.80
2022-12-17T10:36:10.499Z,25.70
2022-12-17T10:37:10.505Z,24.30
2022-12-17T10:38:10.479Z,23.20
2022-12-17T10:39:10.505Z,24.50
2022-12-17T10:40:10.489Z,24.80
2022-12-17T10:41:10.467Z,27.80
2022-12-17T10:42:10.444Z,25.00
2022-12-17T10:43:10.468Z,27.60
2022-12-17T10:44:10.418Z,26.40
2022-12-17T10:45:10.459Z,24.00
2022-12-17T10:46:10.435Z,29.60
2022-12-17T10:47:10.424Z,29.30
2022-12-17T10:48:10.386Z,25.40
2022-12-17T10:49:11.702Z,23.70
2022-12-17T10:50:10.385Z,26.40
2022-12-17T10:51:10.366Z,28.30
2022-12-17T10:52:10.344Z,25.80
2022-12-17T10:53:10.349Z,30.90
2022-12-17T10:54:10.343Z,24.50
2022-12-17T10:55:10.343Z,24.20
2022-12-17T10:56:10.304Z,30.80
2022-12-17T10:57:10.308Z,23.20
2022-12-17T10:58:10.308Z,23.00
2022-12-17T10:59:10.327Z,30.60
2022-12-17T11:00:10.286Z,23.40
2022-12-17T11:01:10.339Z,29.70
2022-12-17T11:02:10.314Z,22.00
2022-12-17T11:03:10.324Z,34.70
2022-12-17T11:04:10.230Z,27.30
2022-12-17T11:05:10.266Z,25.80
2022-12-17T11:06:10.206Z,26.10
2022-12-17T11:07:10.211Z,26.20
2022-12-17T11:08:10.190Z,26.60
2022-12-17T11:09:10.210Z,26.90
2022-12-17T11:10:10.428Z,27.70
2022-12-17T11:11:10.193Z,27.40
2022-12-17T11:12:10.157Z,32.50
2022-12-17T11:13:10.163Z,31.00
2022-12-17T11:14:10.132Z,34.30
2022-12-17T11:15:10.148Z,29.80
2022-12-17T11:16:10.172Z,26.10
2022-12-17T11:17:10.132Z,29.70
2022-12-17T11:18:11.800Z,27.90
2022-12-17T11:19:10.107Z,24.30
2022-12-17T11:20:10.089Z,28.40
2022-12-17T11:21:10.074Z,25.80
2022-12-17T11:22:10.067Z,28.60
2022-12-17T11:23:10.055Z,27.00
2022-12-17T11:24:10.028Z,30.60
2022-12-17T11:25:10.063Z,30.80
2022-12-17T11:26:10.010Z,27.30
2022-12-17T11:27:10.040Z,26.30
2022-12-17T11:28:09.988Z,26.50
2022-12-17T11:29:10.008Z,27.30
2022-12-17T11:30:09.976Z,33.50
2022-12-17T11:31:10.021Z,28.80
2022-12-17T11:32:09.989Z,34.00
2022-12-17T11:33:09.971Z,30.90
2022-12-17T11:34:09.954Z,26.00
2022-12-17T11:35:09.950Z,27.20
2022-12-17T11:36:09.955Z,40.20
2022-12-17T11:37:09.956Z,29.20
2022-12-17T11:38:09.928Z,26.90
2022-12-17T11:39:09.897Z,31.10
2022-12-17T11:40:09.871Z,26.20
2022-12-17T11:41:09.881Z,31.70
2022-12-17T11:42:11.595Z,31.30
2022-12-17T11:43:09.875Z,31.50
2022-12-17T11:44:09.863Z,26.10
2022-12-17T11:45:09.840Z,25.80
2022-12-17T11:46:09.838Z,30.60
2022-12-17T11:47:09.825Z,27.00
2022-12-17T11:48:09.816Z,30.90
2022-12-17T11:49:09.814Z,29.00
2022-12-17T11:50:09.794Z,26.50
2022-12-17T11:51:09.794Z,34.60
2022-12-17T11:52:09.760Z,36.60
2022-12-17T11:53:09.758Z,30.90
2022-12-17T11:54:09.739Z,30.70
2022-12-17T11:55:09.765Z,22.80
2022-12-17T11:56:09.736Z,35.20
2022-12-17T11:57:09.733Z,26.30
2022-12-17T11:58:09.697Z,26.10
2022-12-17T11:59:09.713Z,26.50
2022-12-17T12:00:09.695Z,26.70
2022-12-17T12:01:09.679Z,29.60
2022-12-17T12:02:09.678Z,27.90
2022-12-17T12:03:09.736Z,25.90
2022-12-17T12:04:09.735Z,23.80
2022-12-17T12:05:09.639Z,26.00
2022-12-17T12:06:09.653Z,27.90
2022-12-17T12:07:09.618Z,29.90
2022-12-17T12:08:09.610Z,29.60
2022-12-17T12:09:09.599Z,28.20
2022-12-17T12:10:09.574Z,30.50
2022-12-17T12:11:09.593Z,23.10
2022-12-17T12:12:09.582Z,27.50
2022-12-17T12:13:09.559Z,24.10
2022-12-17T12:14:09.534Z,27.10
2022-12-17T12:15:09.560Z,25.20
2022-12-17T12:16:09.595Z,27.80
2022-12-17T12:17:09.531Z,32.50
2022-12-17T12:18:09.519Z,31.70
2022-12-17T12:19:09.511Z,28.00
2022-12-17T12:20:09.475Z,26.60
2022-12-17T12:21:09.493Z,25.10
2022-12-17T12:22:09.475Z,25.40
2022-12-17T12:23:09.469Z,27.70
2022-12-17T12:24:09.445Z,23.40
2022-12-17T12:25:09.439Z,23.90
2022-12-17T12:26:09.411Z,29.30
2022-12-17T12:27:09.427Z,30.90
2022-12-17T12:28:09.388Z,24.60
2022-12-17T12:29:09.439Z,34.10
2022-12-17T12:30:09.369Z,28.70
2022-12-17T12:31:09.404Z,25.90
2022-12-17T12:32:09.358Z,30.50
2022-12-17T12:33:10.247Z,28.40
2022-12-17T12:34:09.324Z,29.10
2022-12-17T12:35:09.351Z,24.70
2022-12-17T12:36:09.309Z,25.30
2022-12-17T12:37:09.310Z,27.10
2022-12-17T12:38:09.287Z,24.80
2022-12-17T12:39:09.303Z,27.50
2022-12-17T12:40:09.300Z,27.60
2022-12-17T12:41:09.268Z,27.50
2022-12-17T12:42:09.253Z,29.90
2022-12-17T12:43:09.262Z,26.90
2022-12-17T12:44:09.229Z,29.20
2022-12-17T12:45:09.251Z,31.60
2022-12-17T12:46:09.330Z,28.30
2022-12-17T12:47:09.209Z,29.10
2022-12-17T12:48:09.183Z,29.20
2022-12-17T12:49:09.204Z,28.30
2022-12-17T12:50:09.195Z,29.10
2022-12-17T12:51:09.211Z,26.90
2022-12-17T12:52:09.143Z,27.60